Time;durP1;ratioP1;P1;durP2;ratioP2;P2;SDS_P1;SDS_P2;PMS_P1;PMS_P2;Temp;Humidity;BMP_temperature;BMP_pressure;BME280_temperature;BME280_humidity;BME280_pressure;Samples;Min_cycle;Max_cycle;Signal;HPM_P1;HPM_P2
2024/01/15 00:01:00;;;;;;;41.42;22.60;;;4.10;99.90;;;3.25;100.00;100831.03;4135985;28;20113;-68
2024/01/15 00:03:01;;;;;;;51.45;24.38;;;4.10;99.90;;;3.20;100.00;100818.31;4136331;28;20029;-68
2024/01/15 00:05:03;;;;;;;58.10;27.98;;;4.10;99.90;;;3.25;100.00;100821.47;4136420;28;20023;-68
2024/01/15 00:07:05;;;;;;;49.22;24.80;;;4.10;99.90;;;3.21;100.00;100819.16;4136424;28;20093;-68
2024/01/15 00:09:06;;;;;;;44.85;21.58;;;4.10;99.90;;;3.20;100.00;100813.09;4135073;28;20466;-68
2024/01/15 00:11:07;;;;;;;58.35;29.25;;;4.00;99.90;;;3.18;100.00;100820.22;4135228;28;20075;-68
2024/01/15 00:13:08;;;;;;;54.03;26.80;;;4.00;99.90;;;3.14;100.00;100818.75;4136091;28;20049;-68
2024/01/15 00:15:09;;;;;;;43.80;23.25;;;4.00;99.90;;;3.18;100.00;100817.59;4135079;28;20609;-68
2024/01/15 00:17:10;;;;;;;32.85;18.70;;;4.00;99.90;;;3.17;100.00;100810.72;4136010;28;20037;-68
2024/01/15 00:19:11;;;;;;;32.13;18.52;;;4.00;99.90;;;3.18;100.00;100803.72;4134927;28;20490;-68
2024/01/15 00:21:12;;;;;;;31.80;17.65;;;4.00;99.90;;;3.17;100.00;100807.25;4135048;28;20030;-68
2024/01/15 00:23:13;;;;;;;30.63;17.15;;;4.00;99.90;;;3.17;100.00;100805.50;4127152;28;20137;-68
2024/01/15 00:25:13;;;;;;;33.03;18.50;;;4.00;99.90;;;3.16;100.00;100797.81;4135791;28;20076;-68
2024/01/15 00:27:14;;;;;;;35.28;17.92;;;4.00;99.90;;;3.16;100.00;100792.59;4135927;28;20037;-68
2024/01/15 00:29:15;;;;;;;34.65;19.40;;;4.00;99.90;;;3.15;100.00;100783.94;4135237;28;20041;-68
2024/01/15 00:31:17;;;;;;;38.40;19.23;;;4.00;99.90;;;3.17;100.00;100783.81;4135956;28;20045;-68
2024/01/15 00:33:18;;;;;;;33.95;18.73;;;4.00;99.90;;;3.17;100.00;100789.03;4135115;28;20528;-68
2024/01/15 00:35:19;;;;;;;35.83;19.17;;;4.00;99.90;;;3.17;100.00;100796.84;4136115;28;20038;-68
2024/01/15 00:37:20;;;;;;;36.30;20.05;;;4.00;99.90;;;3.13;100.00;100790.19;4136183;28;20042;-68
2024/01/15 00:39:21;;;;;;;35.10;18.95;;;4.00;99.90;;;3.15;100.00;100786.53;4135030;28;20026;-68
2024/01/15 00:41:22;;;;;;;37.13;20.75;;;4.00;99.90;;;3.16;100.00;100789.97;4135964;28;20398;-68
2024/01/15 00:43:23;;;;;;;40.10;22.98;;;4.00;99.90;;;3.15;100.00;100785.69;4134845;28;20029;-68
2024/01/15 00:45:23;;;;;;;37.33;20.33;;;4.00;99.90;;;3.15;100.00;100780.50;4136029;28;20030;-68
2024/01/15 00:47:24;;;;;;;29.25;17.30;;;4.00;99.90;;;3.16;100.00;100772.56;4135918;28;20038;-68
2024/01/15 00:49:26;;;;;;;31.58;17.88;;;4.00;99.90;;;3.16;100.00;100759.53;4136279;28;20093;-68
2024/01/15 00:51:27;;;;;;;31.05;17.17;;;4.00;99.90;;;3.17;100.00;100761.19;4138137;28;20116;-68
2024/01/15 00:53:28;;;;;;;30.15;17.08;;;4.00;99.90;;;3.18;100.00;100764.63;4138165;28;20026;-68
2024/01/15 00:55:29;;;;;;;31.58;17.50;;;4.00;99.90;;;3.20;100.00;100765.34;4139468;28;20022;-68
2024/01/15 00:57:30;;;;;;;24.73;15.57;;;4.00;99.90;;;3.21;100.00;100765.25;4139421;28;20540;-68
2024/01/15 00:59:31;;;;;;;30.50;17.13;;;4.00;99.90;;;3.18;100.00;100760.25;4137943;28;20018;-68
2024/01/15 01:01:32;;;;;;;32.08;17.02;;;4.00;99.90;;;3.18;100.00;100755.03;4137714;28;20027;-68
2024/01/15 01:03:33;;;;;;;32.03;18.92;;;4.00;99.90;;;3.18;100.00;100751.59;4139150;28;20034;-68
2024/01/15 01:05:34;;;;;;;28.95;16.27;;;4.00;99.90;;;3.19;100.00;100758.50;4139191;28;20029;-68
2024/01/15 01:07:35;;;;;;;35.67;16.98;;;4.00;99.90;;;3.15;100.00;100747.44;4139086;28;20667;-68
2024/01/15 01:09:36;;;;;;;34.65;18.92;;;4.00;99.90;;;3.15;100.00;100747.44;4138860;28;20022;-68
2024/01/15 01:11:37;;;;;;;31.73;17.13;;;4.00;99.90;;;3.14;100.00;100745.78;4137930;28;20514;-68
2024/01/15 01:13:38;;;;;;;31.40;16.17;;;4.00;99.90;;;3.13;100.00;100749.34;4139072;28;20505;-68
2024/01/15 01:15:39;;;;;;;36.05;18.15;;;4.00;99.90;;;3.11;100.00;100735.56;4138789;28;20038;-68
2024/01/15 01:17:40;;;;;;;34.22;17.67;;;4.00;99.90;;;3.12;100.00;100732.03;4137688;28;20030;-68
2024/01/15 01:19:40;;;;;;;31.25;17.40;;;4.00;99.90;;;3.09;100.00;100727.03;4139090;28;20080;-68
2024/01/15 01:21:41;;;;;;;29.85;16.17;;;4.00;99.90;;;3.14;100.00;100737.94;4138968;28;20077;-68
2024/01/15 01:23:42;;;;;;;29.48;16.90;;;4.00;99.90;;;3.14;100.00;100737.94;4138911;28;20027;-68
2024/01/15 01:25:43;;;;;;;27.35;15.35;;;4.00;99.90;;;3.15;100.00;100737.03;4138685;28;20504;-68
2024/01/15 01:27:44;;;;;;;28.50;15.60;;;4.00;99.90;;;3.16;100.00;100738.69;4138592;28;20033;-68
2024/01/15 01:29:45;;;;;;;24.67;15.48;;;4.00;99.90;;;3.17;100.00;100734.28;4139013;28;20031;-68
2024/01/15 01:31:46;;;;;;;26.63;15.55;;;4.00;99.90;;;3.15;100.00;100731.81;4138559;28;20040;-68
2024/01/15 01:33:47;;;;;;;25.15;14.55;;;4.00;99.90;;;3.17;100.00;100729.06;4138810;28;20520;-68
2024/01/15 01:35:48;;;;;;;29.55;14.93;;;4.00;99.90;;;3.18;100.00;100726.38;4138957;28;20030;-68
2024/01/15 01:37:49;;;;;;;27.52;15.85;;;4.00;99.90;;;3.17;100.00;100726.47;4138915;28;20037;-68
2024/01/15 01:39:49;;;;;;;28.70;15.60;;;4.00;99.90;;;3.17;100.00;100724.69;4138621;28;20030;-68
2024/01/15 01:41:50;;;;;;;27.75;15.40;;;4.00;99.90;;;3.17;100.00;100724.69;4138409;28;20035;-68
2024/01/15 01:43:51;;;;;;;25.98;14.77;;;4.00;99.90;;;3.18;100.00;100734.19;4138592;28;20034;-68
2024/01/15 01:45:55;;;;;;;28.05;16.75;;;4.00;99.90;;;3.17;100.00;100724.69;4137263;28;20027;-68
2024/01/15 01:47:56;;;;;;;27.35;15.38;;;4.00;99.90;;;3.19;100.00;100724.59;4137488;28;20019;-68
2024/01/15 01:49:57;;;;;;;29.73;17.13;;;4.00;99.90;;;3.15;100.00;100710.97;4138328;28;20027;-68
2024/01/15 01:52:01;;;;;;;30.25;16.38;;;4.00;99.90;;;3.16;100.00;100707.41;4120907;28;20129;-68
2024/01/15 01:54:02;;;;;;;26.67;15.63;;;4.10;99.90;;;3.18;100.00;100708.13;4169841;28;20030;-68
2024/01/15 01:56:04;;;;;;;27.20;15.38;;;4.00;99.90;;;3.18;100.00;100709.91;4137293;28;20105;-68
2024/01/15 01:58:05;;;;;;;25.25;14.90;;;4.10;99.90;;;3.21;100.00;100713.13;4137122;28;20038;-68
2024/01/15 02:00:08;;;;;;;23.73;13.63;;;4.10;99.90;;;3.19;100.00;100707.19;4136802;28;20030;-68
2024/01/15 02:02:08;;;;;;;22.60;12.68;;;4.10;99.90;;;3.17;100.00;100718.66;4119912;28;20546;-68
2024/01/15 02:04:10;;;;;;;26.55;14.48;;;4.10;99.90;;;3.19;100.00;100720.22;4137236;28;20085;-68
2024/01/15 02:06:11;;;;;;;24.80;13.68;;;4.10;99.90;;;3.20;100.00;100716.66;4138313;28;20109;-68
2024/01/15 02:08:12;;;;;;;22.52;13.80;;;4.00;99.90;;;3.21;100.00;100718.34;4138335;28;20026;-68
2024/01/15 02:10:13;;;;;;;21.90;13.38;;;4.10;99.90;;;3.24;100.00;100723.34;4138063;28;20398;-68
2024/01/15 02:12:14;;;;;;;24.23;14.05;;;4.10;99.90;;;3.23;100.00;100719.06;4136943;28;20046;-68
2024/01/15 02:14:16;;;;;;;22.42;13.05;;;4.10;99.90;;;3.22;100.00;100709.59;4138076;28;20034;-68
2024/01/15 02:16:17;;;;;;;26.50;13.77;;;4.10;99.90;;;3.21;100.00;100702.69;4136803;28;20508;-68
2024/01/15 02:18:18;;;;;;;25.17;14.50;;;4.10;99.90;;;3.20;100.00;100706.25;4138124;28;20034;-68
2024/01/15 02:20:19;;;;;;;29.23;15.55;;;4.00;99.90;;;3.21;100.00;100704.47;4138082;28;20601;-68
2024/01/15 02:22:20;;;;;;;27.85;14.75;;;4.10;99.90;;;3.22;100.00;100717.41;4136914;28;20061;-68
2024/01/15 02:24:20;;;;;;;27.13;15.40;;;4.10;99.90;;;3.20;100.00;100708.84;4152900;28;20085;-68
2024/01/15 02:26:22;;;;;;;24.85;14.30;;;4.10;99.90;;;3.20;100.00;100711.44;4137995;28;20086;-69
2024/01/15 02:28:23;;;;;;;25.58;14.90;;;4.10;99.90;;;3.20;100.00;100708.84;4137770;28;20105;-68
2024/01/15 02:30:28;;;;;;;29.63;16.13;;;4.10;99.90;;;3.21;100.00;100705.31;4137743;28;20030;-68
2024/01/15 02:32:28;;;;;;;28.00;15.50;;;4.10;99.90;;;3.21;100.00;100705.31;4136792;28;20022;-68
2024/01/15 02:34:32;;;;;;;31.92;16.40;;;4.10;99.90;;;3.19;100.00;100709.81;4138026;28;20023;-68
2024/01/15 02:36:33;;;;;;;27.23;14.63;;;4.10;99.90;;;3.18;100.00;100708.13;4136782;28;20033;-68
2024/01/15 02:38:34;;;;;;;23.42;14.40;;;4.10;99.90;;;3.17;100.00;100711.66;4137702;28;20022;-68
2024/01/15 02:40:35;;;;;;;24.60;13.05;;;4.10;99.90;;;3.16;100.00;100715.25;4137752;28;20034;-68
2024/01/15 02:42:36;;;;;;;22.60;12.70;;;4.00;99.90;;;3.16;100.00;100715.25;4137753;28;20116;-68
2024/01/15 02:44:37;;;;;;;24.90;13.60;;;4.10;99.90;;;3.15;100.00;100718.78;4137694;28;20026;-68
2024/01/15 02:46:38;;;;;;;28.00;14.82;;;4.00;99.90;;;3.16;100.00;100727.44;4137448;28;20031;-68
2024/01/15 02:48:39;;;;;;;22.17;13.32;;;4.00;99.90;;;3.10;100.00;100718.28;4137617;28;20035;-68
2024/01/15 02:50:40;;;;;;;25.90;14.20;;;4.00;99.90;;;3.15;100.00;100715.34;4137669;28;20027;-68
2024/01/15 02:52:42;;;;;;;25.33;14.55;;;4.00;99.90;;;3.15;100.00;100720.53;4137593;28;20027;-68
2024/01/15 02:54:42;;;;;;;24.02;13.82;;;4.00;99.90;;;3.14;100.00;100711.06;4137666;28;20026;-68
2024/01/15 02:56:43;;;;;;;23.55;14.15;;;4.00;99.90;;;3.15;100.00;100699.69;4137608;28;20033;-68
2024/01/15 02:58:44;;;;;;;27.80;14.75;;;4.00;99.90;;;3.15;100.00;100697.94;4137723;28;20038;-68
2024/01/15 03:00:46;;;;;;;24.70;13.70;;;4.00;99.90;;;3.17;100.00;100696.03;4135810;28;20042;-68
2024/01/15 03:02:47;;;;;;;24.48;14.02;;;4.00;99.90;;;3.17;100.00;100696.03;4137377;28;20034;-68
2024/01/15 03:04:48;;;;;;;25.27;14.20;;;4.00;99.90;;;3.14;100.00;100693.66;4137364;28;20026;-68
2024/01/15 03:06:49;;;;;;;22.13;11.98;;;4.00;99.90;;;3.13;100.00;100689.41;4137367;28;20015;-68
2024/01/15 03:08:50;;;;;;;25.00;13.43;;;4.00;99.90;;;3.11;100.00;100696.47;4137134;28;20027;-68
2024/01/15 03:10:51;;;;;;;22.40;13.05;;;4.00;99.90;;;3.10;100.00;100692.22;4137217;28;20033;-68
2024/01/15 03:12:52;;;;;;;22.80;13.25;;;4.00;99.90;;;3.08;100.00;100678.44;4136621;28;20506;-68
2024/01/15 03:14:52;;;;;;;23.50;12.73;;;4.00;99.90;;;3.09;100.00;100680.13;4137240;28;20490;-68
2024/01/15 03:16:54;;;;;;;23.48;12.48;;;4.00;99.90;;;3.10;100.00;100684.41;4135762;28;20496;-68
2024/01/15 03:18:55;;;;;;;21.27;13.38;;;3.90;99.90;;;3.12;100.00;100681.66;4137086;28;20026;-68
2024/01/15 03:20:55;;;;;;;26.88;13.35;;;4.00;99.90;;;3.11;100.00;100670.41;4137025;28;20034;-68
2024/01/15 03:22:56;;;;;;;23.30;13.55;;;4.00;99.90;;;3.11;100.00;100667.81;4135898;28;20406;-68
2024/01/15 03:24:57;;;;;;;26.35;14.52;;;4.00;99.90;;;3.08;100.00;100670.63;4137025;28;20041;-68
2024/01/15 03:26:58;;;;;;;22.48;12.98;;;4.00;99.90;;;3.10;100.00;100675.75;4136976;28;20500;-68
2024/01/15 03:28:59;;;;;;;27.05;13.98;;;3.90;99.90;;;3.08;100.00;100685.44;4136816;28;20026;-68
2024/01/15 03:31:00;;;;;;;26.38;13.80;;;3.90;99.90;;;3.10;100.00;100680.97;4135642;28;20038;-68
2024/01/15 03:33:01;;;;;;;27.08;13.05;;;3.90;99.90;;;3.08;100.00;100678.44;4136941;28;20049;-68
2024/01/15 03:35:01;;;;;;;23.20;12.65;;;3.90;99.90;;;3.02;100.00;100673.69;4136931;28;20031;-68
2024/01/15 03:37:03;;;;;;;22.42;12.25;;;3.90;99.90;;;3.09;100.00;100680.13;4136762;28;20030;-68
2024/01/15 03:39:04;;;;;;;19.13;11.38;;;3.90;99.90;;;3.11;100.00;100687.81;4144484;28;20046;-68
2024/01/15 03:41:05;;;;;;;18.65;11.35;;;3.90;99.90;;;3.09;100.00;100682.72;4136699;28;20045;-68
2024/01/15 03:43:05;;;;;;;19.23;11.70;;;3.90;99.90;;;3.12;100.00;100685.13;4136768;28;20027;-68
2024/01/15 03:45:07;;;;;;;19.15;10.85;;;4.00;99.90;;;3.11;100.00;100677.38;4136668;28;20026;-68
2024/01/15 03:47:08;;;;;;;22.90;11.48;;;3.90;99.90;;;3.10;100.00;100683.56;4135551;28;20022;-68
2024/01/15 03:49:08;;;;;;;20.05;11.23;;;4.00;99.90;;;3.10;100.00;100676.59;4136676;28;20027;-68
2024/01/15 03:51:10;;;;;;;17.02;9.73;;;3.90;99.90;;;3.13;100.00;100678.13;4136639;28;20033;-68
2024/01/15 03:53:11;;;;;;;22.30;11.77;;;4.00;99.90;;;3.14;100.00;100682.38;4136375;28;20035;-68
2024/01/15 03:55:12;;;;;;;18.52;10.82;;;4.00;99.90;;;3.13;100.00;100678.13;4136768;28;20027;-68
2024/01/15 03:57:13;;;;;;;17.65;11.00;;;3.90;99.90;;;3.14;100.00;100680.63;4135460;28;20105;-68
2024/01/15 03:59:13;;;;;;;17.05;10.50;;;4.00;99.90;;;3.14;100.00;100677.16;4135267;28;20041;-68
2024/01/15 04:01:14;;;;;;;18.40;11.00;;;4.00;99.90;;;3.14;100.00;100671.97;4134937;28;20022;-68
2024/01/15 04:03:15;;;;;;;20.35;12.02;;;4.00;99.90;;;3.14;100.00;100664.13;4136575;28;20038;-68
2024/01/15 04:05:16;;;;;;;22.33;13.65;;;4.00;99.90;;;3.11;100.00;100657.38;4136479;28;20437;-68
2024/01/15 04:07:17;;;;;;;20.83;12.02;;;4.00;99.90;;;3.13;100.00;100655.50;4135488;28;20022;-68
2024/01/15 04:09:18;;;;;;;22.73;13.18;;;3.90;99.90;;;3.13;100.00;100660.72;4136242;28;20034;-68
2024/01/15 04:11:18;;;;;;;22.83;13.75;;;4.00;99.90;;;3.11;100.00;100652.16;4136420;28;20041;-68
2024/01/15 04:13:19;;;;;;;21.38;12.68;;;4.00;99.90;;;3.09;100.00;100650.63;4136388;28;20030;-68
2024/01/15 04:15:20;;;;;;;23.05;11.93;;;4.00;99.90;;;3.13;100.00;100660.72;4134909;28;20501;-68
2024/01/15 04:17:21;;;;;;;23.95;13.35;;;4.00;99.90;;;3.11;100.00;100661.75;4136319;28;20065;-68
2024/01/15 04:19:22;;;;;;;22.90;12.95;;;4.00;99.90;;;3.11;100.00;100652.16;4136329;28;20501;-68
2024/01/15 04:21:23;;;;;;;22.13;13.43;;;4.00;99.90;;;3.15;100.00;100658.84;4136198;28;20030;-68
2024/01/15 04:23:24;;;;;;;24.05;14.70;;;4.00;99.90;;;3.13;100.00;100658.13;4135790;28;20046;-68
2024/01/15 04:25:24;;;;;;;26.10;14.90;;;4.00;99.90;;;3.12;100.00;100653.84;4135925;28;20030;-68
2024/01/15 04:27:25;;;;;;;26.33;14.35;;;4.00;99.90;;;3.14;100.00;100657.16;4135922;28;20498;-68
2024/01/15 04:29:26;;;;;;;28.60;15.13;;;4.00;99.90;;;3.16;100.00;100662.28;4135011;28;20030;-68
2024/01/15 04:31:27;;;;;;;26.20;15.63;;;4.00;99.90;;;3.13;100.00;100655.50;4135945;28;20517;-68
2024/01/15 04:33:28;;;;;;;30.73;16.20;;;4.00;99.90;;;3.14;100.00;100661.53;4134978;28;20031;-68
2024/01/15 04:35:29;;;;;;;25.63;14.95;;;4.00;99.90;;;3.14;100.00;100654.56;4136045;28;20030;-68
2024/01/15 04:37:30;;;;;;;22.67;13.68;;;4.00;99.90;;;3.15;100.00;100651.00;4136403;28;20038;-68
2024/01/15 04:39:31;;;;;;;26.70;15.82;;;4.00;99.90;;;3.14;100.00;100646.72;4136132;28;20038;-68
2024/01/15 04:41:32;;;;;;;23.40;13.95;;;3.90;99.90;;;3.11;100.00;100640.91;4134718;28;20026;-68
2024/01/15 04:43:33;;;;;;;27.52;15.13;;;4.00;99.90;;;3.12;100.00;100643.41;4135971;28;20517;-68
2024/01/15 04:45:34;;;;;;;23.85;14.07;;;4.00;99.90;;;3.12;100.00;100638.22;4135879;28;20485;-68
2024/01/15 04:47:36;;;;;;;24.48;14.40;;;3.90;99.90;;;3.13;100.00;100641.66;4136077;28;20398;-68
2024/01/15 04:49:37;;;;;;;24.73;14.27;;;4.00;99.90;;;3.09;100.00;100628.00;4136149;28;20026;-68
2024/01/15 04:51:38;;;;;;;24.73;14.30;;;4.00;99.90;;;3.11;100.00;100638.31;4134547;28;20481;-68
2024/01/15 04:53:39;;;;;;;24.42;13.73;;;4.00;99.90;;;3.10;100.00;100645.31;4167418;28;20142;-68
2024/01/15 04:55:40;;;;;;;25.48;14.25;;;3.90;99.90;;;3.02;100.00;100628.53;4135974;28;20026;-68
2024/01/15 04:57:40;;;;;;;23.95;13.88;;;3.90;99.90;;;3.06;100.00;100636.03;4135961;28;20026;-68
2024/01/15 04:59:41;;;;;;;23.00;13.18;;;3.90;99.90;;;3.09;100.00;100638.44;4135849;28;20113;-68
2024/01/15 05:01:42;;;;;;;20.98;13.20;;;3.90;99.90;;;3.10;100.00;100644.47;4134081;28;20027;-68
2024/01/15 05:03:43;;;;;;;24.02;13.93;;;3.90;99.90;;;3.04;100.00;100642.31;4135985;28;20033;-68
2024/01/15 05:05:44;;;;;;;22.77;13.52;;;3.90;99.90;;;3.06;100.00;100632.59;4134658;28;20089;-68
2024/01/15 05:07:45;;;;;;;21.15;13.63;;;3.90;99.90;;;3.01;100.00;100632.94;4135788;28;20022;-68
2024/01/15 05:09:46;;;;;;;26.15;14.73;;;3.90;99.90;;;3.02;100.00;100636.34;4135783;28;20030;-68
2024/01/15 05:11:47;;;;;;;23.50;13.48;;;3.90;99.90;;;3.04;100.00;100637.09;4135750;28;20088;-68
2024/01/15 05:13:47;;;;;;;28.92;14.48;;;3.90;99.90;;;3.03;100.00;100638.88;4135902;28;20378;-68
2024/01/15 05:15:48;;;;;;;25.30;13.27;;;3.90;99.90;;;3.03;100.00;100636.25;4134348;28;20042;-68
2024/01/15 05:17:49;;;;;;;22.95;14.38;;;3.90;99.90;;;3.02;100.00;100637.19;4134661;28;20027;-68
2024/01/15 05:19:50;;;;;;;20.92;12.60;;;3.90;99.90;;;3.05;100.00;100638.75;4134871;28;20034;-68
2024/01/15 05:21:51;;;;;;;24.05;13.18;;;3.90;99.90;;;3.04;100.00;100637.09;4134442;28;20023;-68
2024/01/15 05:23:51;;;;;;;23.33;13.60;;;3.90;99.90;;;3.05;100.00;100633.53;4135907;28;20031;-68
2024/01/15 05:25:52;;;;;;;25.48;15.38;;;3.90;99.90;;;3.04;100.00;100632.72;4135779;28;20034;-68
2024/01/15 05:27:53;;;;;;;22.63;14.38;;;3.90;99.90;;;3.02;100.00;100642.41;4135862;28;20022;-68
2024/01/15 05:29:54;;;;;;;22.40;13.30;;;3.90;99.90;;;3.03;100.00;100644.09;4134488;28;20023;-68
2024/01/15 05:31:55;;;;;;;24.48;13.90;;;3.90;99.90;;;3.04;100.00;100644.91;4135450;28;20065;-68
2024/01/15 05:33:56;;;;;;;24.42;13.88;;;3.90;99.90;;;3.03;100.00;100645.84;4135581;28;20045;-68
2024/01/15 05:35:58;;;;;;;26.73;13.98;;;3.90;99.90;;;3.07;100.00;100647.31;4137663;28;20034;-68
2024/01/15 05:37:59;;;;;;;27.38;14.85;;;3.90;99.90;;;3.00;100.00;100643.47;4138620;28;20027;-68
2024/01/15 05:40:00;;;;;;;24.00;13.65;;;3.90;99.90;;;3.02;100.00;100641.56;4138683;28;20035;-68
2024/01/15 05:42:01;;;;;;;21.55;12.98;;;3.90;99.90;;;3.05;100.00;100646.56;4138464;28;20493;-68
2024/01/15 05:44:02;;;;;;;24.35;14.18;;;3.90;99.90;;;3.03;100.00;100646.69;4137496;28;20034;-68
2024/01/15 05:46:03;;;;;;;25.95;14.43;;;3.90;99.90;;;3.01;100.00;100645.13;4138404;28;20371;-68
2024/01/15 05:48:04;;;;;;;20.45;12.82;;;3.90;99.90;;;3.06;100.00;100646.47;4137298;28;20034;-68
2024/01/15 05:50:06;;;;;;;24.98;14.15;;;3.90;99.90;;;3.06;100.00;100633.44;4137252;28;20050;-68
2024/01/15 05:52:07;;;;;;;21.90;12.73;;;3.90;99.90;;;3.07;100.00;100629.91;4137456;28;20088;-68
2024/01/15 05:54:08;;;;;;;24.65;14.68;;;3.90;99.90;;;3.12;100.00;100632.16;4137367;28;20505;-68
2024/01/15 05:56:10;;;;;;;24.67;13.40;;;3.90;99.90;;;3.13;100.00;100624.25;4138446;28;20031;-68
2024/01/15 05:58:11;;;;;;;25.10;14.25;;;4.00;99.90;;;3.14;100.00;100619.84;4137076;28;20489;-68
2024/01/15 06:00:13;;;;;;;22.00;12.82;;;4.00;99.90;;;3.13;100.00;100621.63;4138265;28;20018;-68
2024/01/15 06:02:14;;;;;;;20.65;12.35;;;4.00;99.90;;;3.14;100.00;100625.06;4138335;28;20049;-68
2024/01/15 06:04:15;;;;;;;22.92;12.75;;;4.00;99.90;;;3.14;100.00;100630.25;4136864;28;20038;-68
2024/01/15 06:06:16;;;;;;;21.58;13.38;;;4.00;99.90;;;3.14;100.00;100631.09;4138193;28;20027;-68
2024/01/15 06:08:18;;;;;;;25.83;14.15;;;4.00;99.90;;;3.15;100.00;100621.50;4138260;28;20029;-68
2024/01/15 06:10:19;;;;;;;22.27;13.30;;;4.00;99.90;;;3.13;100.00;100616.44;4138037;28;20060;-68
2024/01/15 06:12:20;;;;;;;23.65;13.57;;;4.00;99.90;;;3.13;100.00;100620.81;4136807;28;20046;-68
2024/01/15 06:14:21;;;;;;;22.60;14.00;;;4.00;99.90;;;3.12;100.00;100624.34;4137759;28;20038;-68
2024/01/15 06:16:23;;;;;;;25.95;14.05;;;4.00;99.90;;;3.12;100.00;100625.19;4137960;28;20023;-68
2024/01/15 06:18:24;;;;;;;21.90;13.18;;;4.00;99.90;;;3.16;100.00;100625.78;4136923;28;20505;-68
2024/01/15 06:20:25;;;;;;;23.90;14.02;;;4.00;99.90;;;3.16;100.00;100631.84;4138098;28;20029;-68
2024/01/15 06:22:25;;;;;;;23.98;13.93;;;4.00;99.90;;;3.16;100.00;100625.78;4137875;28;20030;-68
2024/01/15 06:24:26;;;;;;;22.30;13.30;;;4.00;99.90;;;3.19;100.00;100630.78;4138083;28;20045;-68
2024/01/15 06:26:27;;;;;;;25.73;13.75;;;4.00;99.90;;;3.19;100.00;100626.41;4136756;28;20038;-68
2024/01/15 06:28:28;;;;;;;26.00;15.20;;;4.00;99.90;;;3.22;100.00;100626.19;4137963;28;20026;-68
2024/01/15 06:30:30;;;;;;;24.33;14.77;;;4.10;99.90;;;3.23;100.00;100624.38;4137557;28;20401;-68
2024/01/15 06:32:30;;;;;;;24.50;14.40;;;4.10;99.90;;;3.20;100.00;100620.22;4138117;28;20033;-68
2024/01/15 06:34:31;;;;;;;24.75;14.20;;;4.10;99.90;;;3.19;100.00;100610.75;4137965;28;20035;-68
2024/01/15 06:36:32;;;;;;;27.42;15.75;;;4.00;99.90;;;3.20;100.00;100609.81;4137898;28;20026;-68
2024/01/15 06:38:33;;;;;;;26.80;14.13;;;4.00;99.90;;;3.21;100.00;100615.84;4136448;28;20033;-68
2024/01/15 06:40:34;;;;;;;27.20;15.98;;;4.00;99.90;;;3.18;100.00;100629.09;4137853;28;20031;-68
2024/01/15 06:42:35;;;;;;;25.33;15.82;;;4.00;99.90;;;3.16;100.00;100618.81;4137515;28;20061;-68
2024/01/15 06:44:36;;;;;;;25.10;15.07;;;4.00;99.90;;;3.18;100.00;100619.53;4137782;28;20023;-68
2024/01/15 06:46:42;;;;;;;26.23;14.63;;;4.00;99.90;;;3.19;100.00;100610.75;4136710;28;20031;-68
2024/01/15 06:48:43;;;;;;;23.42;14.18;;;4.00;99.90;;;3.18;100.00;100605.66;4137735;28;20025;-68
2024/01/15 06:50:44;;;;;;;21.38;13.00;;;4.00;99.90;;;3.16;100.00;100602.34;4137819;28;20030;-68
2024/01/15 06:52:45;;;;;;;29.05;14.93;;;4.00;99.90;;;3.18;100.00;100616.06;4137549;28;20030;-68
2024/01/15 06:54:46;;;;;;;26.70;14.70;;;4.00;99.90;;;3.16;100.00;100616.19;4137447;28;20041;-68
2024/01/15 06:56:47;;;;;;;25.73;15.18;;;4.00;99.90;;;3.12;100.00;100614.75;4137610;28;20019;-68
2024/01/15 06:58:48;;;;;;;27.05;15.57;;;4.00;99.90;;;3.14;100.00;100618.06;4137776;28;20025;-68
2024/01/15 07:00:50;;;;;;;30.77;18.10;;;4.00;99.90;;;3.09;100.00;100627.16;4137249;28;20022;-68
2024/01/15 07:02:51;;;;;;;30.92;17.08;;;4.00;99.90;;;3.11;100.00;100633.09;4138063;28;21046;-68
2024/01/15 07:04:52;;;;;;;27.00;15.35;;;3.90;99.90;;;3.11;100.00;100633.94;4136349;28;20037;-68
2024/01/15 07:06:53;;;;;;;25.77;14.55;;;3.90;99.90;;;3.11;100.00;100626.09;4137561;28;20031;-68
2024/01/15 07:08:54;;;;;;;27.38;14.65;;;4.00;99.90;;;3.14;100.00;100627.66;4137207;28;20018;-68
2024/01/15 07:10:55;;;;;;;25.70;15.23;;;4.00;99.90;;;3.12;100.00;100622.56;4136978;28;20375;-68
2024/01/15 07:12:55;;;;;;;28.73;16.13;;;4.00;99.90;;;3.14;100.00;100620.69;4137034;28;20069;-68
2024/01/15 07:14:56;;;;;;;28.40;15.93;;;4.00;99.90;;;3.15;100.00;100619.75;4137591;28;20027;-68
2024/01/15 07:16:57;;;;;;;24.30;14.30;;;4.00;99.90;;;3.17;100.00;100625.66;4135849;28;20422;-68
2024/01/15 07:18:58;;;;;;;23.63;13.80;;;4.00;99.90;;;3.18;100.00;100624.72;4137103;28;20026;-68
2024/01/15 07:21:01;;;;;;;27.80;16.23;;;4.00;99.90;;;3.18;100.00;100616.06;4137052;28;20041;-68
2024/01/15 07:23:02;;;;;;;27.65;15.35;;;4.00;99.90;;;3.20;100.00;100619.38;4137143;28;20026;-69
2024/01/15 07:25:04;;;;;;;24.00;14.52;;;4.00;99.90;;;3.20;100.00;100616.78;4137104;28;20105;-68
2024/01/15 07:27:05;;;;;;;31.58;16.63;;;4.00;99.90;;;3.18;100.00;100609.09;4137052;28;20030;-68
2024/01/15 07:29:06;;;;;;;23.67;14.40;;;4.00;99.90;;;3.16;100.00;100608.38;4136847;28;20069;-69
2024/01/15 07:31:08;;;;;;;29.67;15.90;;;4.00;99.90;;;3.14;100.00;100607.66;4136814;28;20085;-68
2024/01/15 07:33:09;;;;;;;27.83;15.80;;;4.00;99.90;;;3.10;100.00;100611.44;4136990;28;20061;-69
2024/01/15 07:35:10;;;;;;;29.83;16.15;;;4.00;99.90;;;3.07;100.00;100609.06;4136852;28;20034;-68
2024/01/15 07:37:11;;;;;;;31.45;17.27;;;3.90;99.90;;;3.02;100.00;100608.53;4137027;28;20466;-68
2024/01/15 07:39:12;;;;;;;30.83;18.20;;;3.90;99.90;;;2.97;100.00;100602.00;4136697;28;20026;-68
2024/01/15 07:41:14;;;;;;;29.98;18.33;;;3.90;99.90;;;3.00;100.00;100602.63;4136707;28;20038;-68
2024/01/15 07:43:15;;;;;;;28.90;17.13;;;3.80;99.90;;;3.04;100.00;100611.88;4135632;28;20038;-69
2024/01/15 07:45:16;;;;;;;24.73;14.73;;;3.80;99.90;;;3.03;100.00;100611.97;4136508;28;20057;-68
2024/01/15 07:47:17;;;;;;;28.17;16.15;;;3.90;99.90;;;3.02;100.00;100624.16;4136823;28;20030;-68
2024/01/15 07:49:18;;;;;;;25.92;15.73;;;3.80;99.90;;;2.98;100.00;100625.34;4135482;28;20092;-68
2024/01/15 07:51:19;;;;;;;28.17;16.10;;;3.80;99.90;;;2.99;100.00;100633.97;4136690;28;20057;-68
2024/01/15 07:53:20;;;;;;;26.67;15.27;;;3.80;99.90;;;2.97;100.00;100639.31;4136487;28;20026;-68
2024/01/15 07:55:21;;;;;;;29.48;16.52;;;3.80;99.90;;;2.98;100.00;100640.16;4136649;28;20030;-68
2024/01/15 07:57:22;;;;;;;28.33;17.38;;;3.80;99.90;;;3.00;100.00;100638.25;4136396;28;20022;-68
2024/01/15 07:59:24;;;;;;;31.92;17.38;;;3.80;99.90;;;2.99;100.00;100655.66;4135243;28;20092;-68
2024/01/15 08:01:24;;;;;;;30.88;18.23;;;3.80;99.90;;;3.01;100.00;100651.19;4135058;28;20018;-68
2024/01/15 08:03:25;;;;;;;32.40;17.88;;;3.80;99.90;;;3.02;100.00;100647.63;4136510;28;20034;-68
2024/01/15 08:05:26;;;;;;;32.03;18.40;;;3.90;99.90;;;3.06;100.00;100648.22;4136513;28;20027;-68
2024/01/15 08:07:27;;;;;;;30.17;17.30;;;3.80;99.90;;;3.05;100.00;100647.41;4136466;28;20077;-69
2024/01/15 08:09:29;;;;;;;30.98;17.92;;;3.90;99.90;;;3.06;100.00;100633.44;4134753;28;20022;-68
2024/01/15 08:11:30;;;;;;;30.95;18.27;;;3.90;99.90;;;3.07;100.00;100635.13;4135051;28;20030;-68
2024/01/15 08:13:31;;;;;;;31.55;17.90;;;3.90;99.90;;;3.09;100.00;100633.22;4136271;28;20034;-69
2024/01/15 08:15:32;;;;;;;30.25;18.02;;;4.00;99.90;;;3.11;100.00;100636.53;4135089;28;20033;-69
2024/01/15 08:17:33;;;;;;;31.13;18.13;;;4.00;99.90;;;3.16;100.00;100646.63;4136261;28;20061;-68